sensor_id;sensor_type;location;lat;lon;timestamp;temperature;humidity
67899;DHT22;54699;51.796;10.956;2024-03-08T00:01:21;18.00;50.70
67899;DHT22;54699;51.796;10.956;2024-03-08T00:03:48;18.00;50.80
67899;DHT22;54699;51.796;10.956;2024-03-08T00:06:16;17.90;50.70
67899;DHT22;54699;51.796;10.956;2024-03-08T00:08:44;18.00;50.80
67899;DHT22;54699;51.796;10.956;2024-03-08T00:11:11;17.90;50.80
67899;DHT22;54699;51.796;10.956;2024-03-08T00:13:38;17.90;50.80
67899;DHT22;54699;51.796;10.956;2024-03-08T00:16:05;17.90;50.80
67899;DHT22;54699;51.796;10.956;2024-03-08T00:18:33;17.90;50.80
67899;DHT22;54699;51.796;10.956;2024-03-08T00:21:00;17.90;50.90
67899;DHT22;54699;51.796;10.956;2024-03-08T00:23:29;17.90;50.80
67899;DHT22;54699;51.796;10.956;2024-03-08T00:26:00;17.90;51.10
67899;DHT22;54699;51.796;10.956;2024-03-08T00:28:28;17.90;50.90
67899;DHT22;54699;51.796;10.956;2024-03-08T00:30:56;17.90;50.90
67899;DHT22;54699;51.796;10.956;2024-03-08T00:33:22;17.90;50.90
67899;DHT22;54699;51.796;10.956;2024-03-08T00:35:49;17.90;51.80
67899;DHT22;54699;51.796;10.956;2024-03-08T00:38:16;17.90;50.90
67899;DHT22;54699;51.796;10.956;2024-03-08T00:40:44;17.90;51.30
67899;DHT22;54699;51.796;10.956;2024-03-08T00:43:12;17.90;51.00
67899;DHT22;54699;51.796;10.956;2024-03-08T00:45:39;17.80;50.90
67899;DHT22;54699;51.796;10.956;2024-03-08T00:48:07;17.80;50.90
67899;DHT22;54699;51.796;10.956;2024-03-08T00:50:34;17.80;50.90
67899;DHT22;54699;51.796;10.956;2024-03-08T00:53:01;17.80;50.90
67899;DHT22;54699;51.796;10.956;2024-03-08T00:55:30;17.80;50.90
67899;DHT22;54699;51.796;10.956;2024-03-08T00:57:56;17.80;50.90
67899;DHT22;54699;51.796;10.956;2024-03-08T01:00:25;17.80;50.80
67899;DHT22;54699;51.796;10.956;2024-03-08T01:02:51;17.80;50.80
67899;DHT22;54699;51.796;10.956;2024-03-08T01:05:20;17.80;51.80
67899;DHT22;54699;51.796;10.956;2024-03-08T01:07:50;17.80;50.90
67899;DHT22;54699;51.796;10.956;2024-03-08T01:10:17;17.80;50.90
67899;DHT22;54699;51.796;10.956;2024-03-08T01:12:44;17.80;51.80
67899;DHT22;54699;51.796;10.956;2024-03-08T01:15:11;17.80;50.90
67899;DHT22;54699;51.796;10.956;2024-03-08T01:17:40;17.80;50.90
67899;DHT22;54699;51.796;10.956;2024-03-08T01:20:09;17.80;51.00
67899;DHT22;54699;51.796;10.956;2024-03-08T01:22:36;17.70;50.90
67899;DHT22;54699;51.796;10.956;2024-03-08T01:25:03;17.70;50.90
67899;DHT22;54699;51.796;10.956;2024-03-08T01:27:31;17.70;50.80
67899;DHT22;54699;51.796;10.956;2024-03-08T01:29:58;17.80;51.00
67899;DHT22;54699;51.796;10.956;2024-03-08T01:32:25;17.70;50.90
67899;DHT22;54699;51.796;10.956;2024-03-08T01:34:53;17.70;50.90
67899;DHT22;54699;51.796;10.956;2024-03-08T01:37:20;17.70;50.90
67899;DHT22;54699;51.796;10.956;2024-03-08T01:39:46;17.70;50.80
67899;DHT22;54699;51.796;10.956;2024-03-08T01:42:13;17.70;50.90
67899;DHT22;54699;51.796;10.956;2024-03-08T01:44:42;17.70;50.90
67899;DHT22;54699;51.796;10.956;2024-03-08T01:47:10;17.70;50.90
67899;DHT22;54699;51.796;10.956;2024-03-08T01:49:37;17.70;50.90
67899;DHT22;54699;51.796;10.956;2024-03-08T01:52:06;17.70;50.90
67899;DHT22;54699;51.796;10.956;2024-03-08T01:54:33;17.70;50.90
67899;DHT22;54699;51.796;10.956;2024-03-08T01:57:01;17.70;50.90
67899;DHT22;54699;51.796;10.956;2024-03-08T01:59:28;17.70;50.90
67899;DHT22;54699;51.796;10.956;2024-03-08T02:01:55;17.70;50.90
67899;DHT22;54699;51.796;10.956;2024-03-08T02:04:27;17.60;50.80
67899;DHT22;54699;51.796;10.956;2024-03-08T02:06:53;17.60;50.80
67899;DHT22;54699;51.796;10.956;2024-03-08T02:09:22;17.60;50.90
67899;DHT22;54699;51.796;10.956;2024-03-08T02:11:50;17.70;51.00
67899;DHT22;54699;51.796;10.956;2024-03-08T02:14:17;17.60;50.90
67899;DHT22;54699;51.796;10.956;2024-03-08T02:16:44;17.60;50.90
67899;DHT22;54699;51.796;10.956;2024-03-08T02:19:11;17.60;50.90
67899;DHT22;54699;51.796;10.956;2024-03-08T02:21:39;17.60;51.80
67899;DHT22;54699;51.796;10.956;2024-03-08T02:24:07;17.60;51.20
67899;DHT22;54699;51.796;10.956;2024-03-08T02:26:33;17.60;51.80
67899;DHT22;54699;51.796;10.956;2024-03-08T02:29:01;17.60;50.80
67899;DHT22;54699;51.796;10.956;2024-03-08T02:31:28;17.60;51.00
67899;DHT22;54699;51.796;10.956;2024-03-08T02:33:55;17.60;50.90
67899;DHT22;54699;51.796;10.956;2024-03-08T02:36:21;17.60;50.90
67899;DHT22;54699;51.796;10.956;2024-03-08T02:38:50;17.60;51.00
67899;DHT22;54699;51.796;10.956;2024-03-08T02:41:17;17.60;50.90
67899;DHT22;54699;51.796;10.956;2024-03-08T02:43:44;17.60;50.90
67899;DHT22;54699;51.796;10.956;2024-03-08T02:46:10;17.60;51.00
67899;DHT22;54699;51.796;10.956;2024-03-08T02:48:37;17.60;50.90
67899;DHT22;54699;51.796;10.956;2024-03-08T02:51:05;17.60;50.90
67899;DHT22;54699;51.796;10.956;2024-03-08T02:53:32;17.60;50.90
67899;DHT22;54699;51.796;10.956;2024-03-08T02:56:03;17.60;51.00
67899;DHT22;54699;51.796;10.956;2024-03-08T02:58:33;17.50;50.90
67899;DHT22;54699;51.796;10.956;2024-03-08T03:01:00;17.50;50.90
67899;DHT22;54699;51.796;10.956;2024-03-08T03:03:26;17.50;50.90
67899;DHT22;54699;51.796;10.956;2024-03-08T03:05:55;17.50;50.90
67899;DHT22;54699;51.796;10.956;2024-03-08T03:08:22;17.50;50.90
67899;DHT22;54699;51.796;10.956;2024-03-08T03:10:49;17.50;50.90
67899;DHT22;54699;51.796;10.956;2024-03-08T03:13:17;17.50;51.00
67899;DHT22;54699;51.796;10.956;2024-03-08T03:15:46;17.50;50.90
67899;DHT22;54699;51.796;10.956;2024-03-08T03:18:13;17.50;50.90
67899;DHT22;54699;51.796;10.956;2024-03-08T03:20:40;17.50;51.00
67899;DHT22;54699;51.796;10.956;2024-03-08T03:23:08;17.50;50.90
67899;DHT22;54699;51.796;10.956;2024-03-08T03:25:39;17.50;50.90
67899;DHT22;54699;51.796;10.956;2024-03-08T03:28:06;17.50;50.90
67899;DHT22;54699;51.796;10.956;2024-03-08T03:30:37;17.50;50.80
67899;DHT22;54699;51.796;10.956;2024-03-08T03:33:04;17.50;50.90
67899;DHT22;54699;51.796;10.956;2024-03-08T03:35:32;17.50;50.90
67899;DHT22;54699;51.796;10.956;2024-03-08T03:37:59;17.50;50.90
67899;DHT22;54699;51.796;10.956;2024-03-08T03:40:32;17.50;50.90
67899;DHT22;54699;51.796;10.956;2024-03-08T03:42:59;17.50;50.90
67899;DHT22;54699;51.796;10.956;2024-03-08T03:45:26;17.40;50.80
67899;DHT22;54699;51.796;10.956;2024-03-08T03:47:56;17.40;50.80
67899;DHT22;54699;51.796;10.956;2024-03-08T03:50:25;17.50;50.90
67899;DHT22;54699;51.796;10.956;2024-03-08T03:52:52;17.40;50.90
67899;DHT22;54699;51.796;10.956;2024-03-08T03:55:19;17.40;50.90
67899;DHT22;54699;51.796;10.956;2024-03-08T03:57:47;17.40;50.90
67899;DHT22;54699;51.796;10.956;2024-03-08T04:00:14;17.40;50.80
67899;DHT22;54699;51.796;10.956;2024-03-08T04:02:42;17.40;50.80
67899;DHT22;54699;51.796;10.956;2024-03-08T04:05:10;17.40;50.80
67899;DHT22;54699;51.796;10.956;2024-03-08T04:07:38;17.40;50.90
67899;DHT22;54699;51.796;10.956;2024-03-08T04:10:06;17.40;50.80
67899;DHT22;54699;51.796;10.956;2024-03-08T04:12:37;17.40;50.80
67899;DHT22;54699;51.796;10.956;2024-03-08T04:15:04;17.40;50.80
67899;DHT22;54699;51.796;10.956;2024-03-08T04:17:32;17.40;50.70
67899;DHT22;54699;51.796;10.956;2024-03-08T04:20:01;17.40;50.80
67899;DHT22;54699;51.796;10.956;2024-03-08T04:22:35;17.40;50.80
67899;DHT22;54699;51.796;10.956;2024-03-08T04:25:05;17.40;50.90
67899;DHT22;54699;51.796;10.956;2024-03-08T04:27:34;17.40;50.90
67899;DHT22;54699;51.796;10.956;2024-03-08T04:30:05;17.30;50.80
67899;DHT22;54699;51.796;10.956;2024-03-08T04:32:33;17.40;51.00
67899;DHT22;54699;51.796;10.956;2024-03-08T04:35:00;17.30;50.80
67899;DHT22;54699;51.796;10.956;2024-03-08T04:37:28;17.30;50.80
67899;DHT22;54699;51.796;10.956;2024-03-08T04:39:57;17.30;50.90
67899;DHT22;54699;51.796;10.956;2024-03-08T04:42:24;17.30;50.80
67899;DHT22;54699;51.796;10.956;2024-03-08T04:44:51;17.30;50.80
67899;DHT22;54699;51.796;10.956;2024-03-08T04:47:20;17.30;50.80
67899;DHT22;54699;51.796;10.956;2024-03-08T04:49:47;17.30;50.80
67899;DHT22;54699;51.796;10.956;2024-03-08T04:52:14;17.30;50.80
67899;DHT22;54699;51.796;10.956;2024-03-08T04:54:41;17.30;50.80
67899;DHT22;54699;51.796;10.956;2024-03-08T04:57:11;17.30;50.80
67899;DHT22;54699;51.796;10.956;2024-03-08T04:59:38;17.30;50.80
67899;DHT22;54699;51.796;10.956;2024-03-08T05:02:05;17.30;50.80
67899;DHT22;54699;51.796;10.956;2024-03-08T05:04:32;17.30;50.80
67899;DHT22;54699;51.796;10.956;2024-03-08T05:06:59;17.30;50.80
67899;DHT22;54699;51.796;10.956;2024-03-08T05:09:26;17.30;50.70
67899;DHT22;54699;51.796;10.956;2024-03-08T05:11:54;17.30;50.70
67899;DHT22;54699;51.796;10.956;2024-03-08T05:14:23;17.30;50.80
67899;DHT22;54699;51.796;10.956;2024-03-08T05:16:50;17.30;50.70
67899;DHT22;54699;51.796;10.956;2024-03-08T05:19:18;17.30;50.60
67899;DHT22;54699;51.796;10.956;2024-03-08T05:21:46;17.30;50.60
67899;DHT22;54699;51.796;10.956;2024-03-08T05:24:13;17.30;50.60
67899;DHT22;54699;51.796;10.956;2024-03-08T05:26:41;17.30;50.60
67899;DHT22;54699;51.796;10.956;2024-03-08T05:29:08;17.30;50.60
67899;DHT22;54699;51.796;10.956;2024-03-08T05:31:38;17.30;50.50
67899;DHT22;54699;51.796;10.956;2024-03-08T05:34:12;17.30;50.50
67899;DHT22;54699;51.796;10.956;2024-03-08T05:36:39;17.40;50.60
67899;DHT22;54699;51.796;10.956;2024-03-08T05:39:06;17.40;50.40
67899;DHT22;54699;51.796;10.956;2024-03-08T05:41:33;17.50;50.30
67899;DHT22;54699;51.796;10.956;2024-03-08T05:44:00;17.70;50.10
67899;DHT22;54699;51.796;10.956;2024-03-08T05:46:31;18.10;49.60
67899;DHT22;54699;51.796;10.956;2024-03-08T05:48:59;18.50;49.00
67899;DHT22;54699;51.796;10.956;2024-03-08T05:51:28;18.80;48.30
67899;DHT22;54699;51.796;10.956;2024-03-08T05:53:55;19.00;46.00
67899;DHT22;54699;51.796;10.956;2024-03-08T05:56:25;19.20;45.50
67899;DHT22;54699;51.796;10.956;2024-03-08T05:58:54;19.40;44.50
67899;DHT22;54699;51.796;10.956;2024-03-08T06:01:22;19.70;43.60
67899;DHT22;54699;51.796;10.956;2024-03-08T06:03:48;19.80;44.20
67899;DHT22;54699;51.796;10.956;2024-03-08T06:06:17;20.30;44.50
67899;DHT22;54699;51.796;10.956;2024-03-08T06:08:44;20.40;44.00
67899;DHT22;54699;51.796;10.956;2024-03-08T06:11:12;20.60;43.60
67899;DHT22;54699;51.796;10.956;2024-03-08T06:13:40;20.80;43.10
67899;DHT22;54699;51.796;10.956;2024-03-08T06:16:07;20.90;42.80
67899;DHT22;54699;51.796;10.956;2024-03-08T06:18:34;21.00;42.60
67899;DHT22;54699;51.796;10.956;2024-03-08T06:21:02;21.00;42.50
67899;DHT22;54699;51.796;10.956;2024-03-08T06:23:31;21.10;42.50
67899;DHT22;54699;51.796;10.956;2024-03-08T06:25:58;21.10;42.20
67899;DHT22;54699;51.796;10.956;2024-03-08T06:28:25;21.10;42.40
67899;DHT22;54699;51.796;10.956;2024-03-08T06:30:52;21.10;42.30
67899;DHT22;54699;51.796;10.956;2024-03-08T06:33:19;21.00;42.10
67899;DHT22;54699;51.796;10.956;2024-03-08T06:35:46;20.90;41.60
67899;DHT22;54699;51.796;10.956;2024-03-08T06:38:13;21.00;41.80
67899;DHT22;54699;51.796;10.956;2024-03-08T06:40:43;21.00;41.80
67899;DHT22;54699;51.796;10.956;2024-03-08T06:43:13;20.90;41.50
67899;DHT22;54699;51.796;10.956;2024-03-08T06:45:41;21.10;41.30
67899;DHT22;54699;51.796;10.956;2024-03-08T06:48:13;21.10;40.60
67899;DHT22;54699;51.796;10.956;2024-03-08T06:50:42;21.00;39.80
67899;DHT22;54699;51.796;10.956;2024-03-08T06:53:10;20.90;39.50
67899;DHT22;54699;51.796;10.956;2024-03-08T06:55:37;21.00;39.20
67899;DHT22;54699;51.796;10.956;2024-03-08T06:58:06;21.20;39.20
67899;DHT22;54699;51.796;10.956;2024-03-08T07:00:33;21.10;38.90
67899;DHT22;54699;51.796;10.956;2024-03-08T07:03:02;21.10;37.60
67899;DHT22;54699;51.796;10.956;2024-03-08T07:05:31;21.00;37.10
67899;DHT22;54699;51.796;10.956;2024-03-08T07:07:58;21.30;38.30
67899;DHT22;54699;51.796;10.956;2024-03-08T07:10:25;21.20;38.30
67899;DHT22;54699;51.796;10.956;2024-03-08T07:12:55;21.20;38.20
67899;DHT22;54699;51.796;10.956;2024-03-08T07:15:25;21.50;38.00
67899;DHT22;54699;51.796;10.956;2024-03-08T07:17:53;21.70;37.60
67899;DHT22;54699;51.796;10.956;2024-03-08T07:20:21;21.70;37.30
67899;DHT22;54699;51.796;10.956;2024-03-08T07:22:48;21.50;37.40
67899;DHT22;54699;51.796;10.956;2024-03-08T07:25:16;21.60;37.20
67899;DHT22;54699;51.796;10.956;2024-03-08T07:27:47;21.70;37.20
67899;DHT22;54699;51.796;10.956;2024-03-08T07:30:14;21.60;37.00
67899;DHT22;54699;51.796;10.956;2024-03-08T07:33:05;21.70;36.90
67899;DHT22;54699;51.796;10.956;2024-03-08T07:35:33;21.70;36.80
67899;DHT22;54699;51.796;10.956;2024-03-08T07:38:02;21.70;36.70
67899;DHT22;54699;51.796;10.956;2024-03-08T07:40:31;21.70;36.50
67899;DHT22;54699;51.796;10.956;2024-03-08T07:43:01;21.70;37.10
67899;DHT22;54699;51.796;10.956;2024-03-08T07:45:28;21.80;36.90
67899;DHT22;54699;51.796;10.956;2024-03-08T07:47:56;21.80;36.90
67899;DHT22;54699;51.796;10.956;2024-03-08T07:50:27;21.40;36.60
67899;DHT22;54699;51.796;10.956;2024-03-08T07:52:54;21.70;37.30
67899;DHT22;54699;51.796;10.956;2024-03-08T07:55:22;21.60;37.20
67899;DHT22;54699;51.796;10.956;2024-03-08T07:57:52;21.60;37.30
67899;DHT22;54699;51.796;10.956;2024-03-08T08:00:20;21.60;37.90
67899;DHT22;54699;51.796;10.956;2024-03-08T08:02:47;21.70;37.20
67899;DHT22;54699;51.796;10.956;2024-03-08T08:05:15;21.70;37.00
67899;DHT22;54699;51.796;10.956;2024-03-08T08:07:46;21.70;36.70
67899;DHT22;54699;51.796;10.956;2024-03-08T08:10:13;21.80;36.60
67899;DHT22;54699;51.796;10.956;2024-03-08T08:12:44;21.80;36.70
67899;DHT22;54699;51.796;10.956;2024-03-08T08:15:11;21.80;36.60
67899;DHT22;54699;51.796;10.956;2024-03-08T08:17:40;21.70;35.80
67899;DHT22;54699;51.796;10.956;2024-03-08T08:20:08;21.80;36.30
67899;DHT22;54699;51.796;10.956;2024-03-08T08:22:37;21.90;36.30
67899;DHT22;54699;51.796;10.956;2024-03-08T08:25:06;21.90;36.40
67899;DHT22;54699;51.796;10.956;2024-03-08T08:27:37;21.70;36.30
67899;DHT22;54699;51.796;10.956;2024-03-08T08:30:05;21.70;36.60
67899;DHT22;54699;51.796;10.956;2024-03-08T08:32:33;21.70;36.70
67899;DHT22;54699;51.796;10.956;2024-03-08T08:35:01;21.80;37.90
67899;DHT22;54699;51.796;10.956;2024-03-08T08:37:29;21.60;36.70
67899;DHT22;54699;51.796;10.956;2024-03-08T08:39:57;21.60;36.80
67899;DHT22;54699;51.796;10.956;2024-03-08T08:42:32;21.60;37.20
67899;DHT22;54699;51.796;10.956;2024-03-08T08:44:59;21.60;37.50
67899;DHT22;54699;51.796;10.956;2024-03-08T08:47:26;21.60;38.60
67899;DHT22;54699;51.796;10.956;2024-03-08T08:49:53;21.60;39.00
67899;DHT22;54699;51.796;10.956;2024-03-08T08:52:22;21.60;39.10
67899;DHT22;54699;51.796;10.956;2024-03-08T08:54:49;21.70;39.80
67899;DHT22;54699;51.796;10.956;2024-03-08T08:57:17;21.80;39.40
67899;DHT22;54699;51.796;10.956;2024-03-08T08:59:47;21.90;39.50
67899;DHT22;54699;51.796;10.956;2024-03-08T09:02:15;22.00;39.50
67899;DHT22;54699;51.796;10.956;2024-03-08T09:04:46;22.10;38.50
67899;DHT22;54699;51.796;10.956;2024-03-08T09:07:13;22.10;37.30
67899;DHT22;54699;51.796;10.956;2024-03-08T09:09:41;22.30;36.90
67899;DHT22;54699;51.796;10.956;2024-03-08T09:12:08;22.30;36.20
67899;DHT22;54699;51.796;10.956;2024-03-08T09:14:38;22.40;35.30
67899;DHT22;54699;51.796;10.956;2024-03-08T09:17:07;22.50;35.40
67899;DHT22;54699;51.796;10.956;2024-03-08T09:19:34;22.50;35.30
67899;DHT22;54699;51.796;10.956;2024-03-08T09:22:03;22.60;35.30
67899;DHT22;54699;51.796;10.956;2024-03-08T09:24:30;22.60;35.50
67899;DHT22;54699;51.796;10.956;2024-03-08T09:26:57;22.50;35.90
67899;DHT22;54699;51.796;10.956;2024-03-08T09:29:25;22.50;35.50
67899;DHT22;54699;51.796;10.956;2024-03-08T09:31:52;22.60;33.90
67899;DHT22;54699;51.796;10.956;2024-03-08T09:34:20;22.50;33.50
67899;DHT22;54699;51.796;10.956;2024-03-08T09:36:47;22.50;32.30
67899;DHT22;54699;51.796;10.956;2024-03-08T09:39:14;22.50;31.80
67899;DHT22;54699;51.796;10.956;2024-03-08T09:41:42;22.40;31.60
67899;DHT22;54699;51.796;10.956;2024-03-08T09:44:10;22.40;31.40
67899;DHT22;54699;51.796;10.956;2024-03-08T09:46:40;22.30;30.30
67899;DHT22;54699;51.796;10.956;2024-03-08T09:49:07;22.30;30.00
67899;DHT22;54699;51.796;10.956;2024-03-08T09:51:38;22.30;29.90
67899;DHT22;54699;51.796;10.956;2024-03-08T09:54:06;22.50;30.30
67899;DHT22;54699;51.796;10.956;2024-03-08T09:56:34;22.50;31.10
67899;DHT22;54699;51.796;10.956;2024-03-08T09:59:02;22.70;32.20
67899;DHT22;54699;51.796;10.956;2024-03-08T10:02:06;22.60;32.90
67899;DHT22;54699;51.796;10.956;2024-03-08T10:04:40;22.70;33.30
67899;DHT22;54699;51.796;10.956;2024-03-08T10:07:09;22.90;33.20
67899;DHT22;54699;51.796;10.956;2024-03-08T10:09:37;22.80;32.90
67899;DHT22;54699;51.796;10.956;2024-03-08T10:12:05;23.00;33.20
67899;DHT22;54699;51.796;10.956;2024-03-08T10:14:33;23.10;33.30
67899;DHT22;54699;51.796;10.956;2024-03-08T10:17:01;23.00;33.20
67899;DHT22;54699;51.796;10.956;2024-03-08T10:19:30;23.10;33.40
67899;DHT22;54699;51.796;10.956;2024-03-08T10:21:58;23.10;33.50
67899;DHT22;54699;51.796;10.956;2024-03-08T10:24:26;23.10;34.20
67899;DHT22;54699;51.796;10.956;2024-03-08T10:26:54;23.20;33.30
67899;DHT22;54699;51.796;10.956;2024-03-08T10:29:25;23.20;33.20
67899;DHT22;54699;51.796;10.956;2024-03-08T10:31:52;23.40;33.80
67899;DHT22;54699;51.796;10.956;2024-03-08T10:34:21;23.50;33.50
67899;DHT22;54699;51.796;10.956;2024-03-08T10:36:49;23.60;33.40
67899;DHT22;54699;51.796;10.956;2024-03-08T10:39:19;23.50;33.40
67899;DHT22;54699;51.796;10.956;2024-03-08T10:41:52;23.50;33.20
67899;DHT22;54699;51.796;10.956;2024-03-08T10:44:31;23.60;34.40
67899;DHT22;54699;51.796;10.956;2024-03-08T10:47:10;23.70;34.50
67899;DHT22;54699;51.796;10.956;2024-03-08T10:49:49;23.80;35.00
67899;DHT22;54699;51.796;10.956;2024-03-08T10:52:21;23.80;35.10
67899;DHT22;54699;51.796;10.956;2024-03-08T10:54:48;23.70;35.40
67899;DHT22;54699;51.796;10.956;2024-03-08T10:57:18;23.80;35.10
67899;DHT22;54699;51.796;10.956;2024-03-08T10:59:49;23.80;35.60
67899;DHT22;54699;51.796;10.956;2024-03-08T11:02:18;23.90;35.90
67899;DHT22;54699;51.796;10.956;2024-03-08T11:04:46;24.00;35.30
67899;DHT22;54699;51.796;10.956;2024-03-08T11:07:14;24.10;35.80
67899;DHT22;54699;51.796;10.956;2024-03-08T11:09:47;24.10;35.30
67899;DHT22;54699;51.796;10.956;2024-03-08T11:12:20;24.10;34.80
67899;DHT22;54699;51.796;10.956;2024-03-08T11:14:50;24.10;34.80
67899;DHT22;54699;51.796;10.956;2024-03-08T11:17:22;24.40;34.20
67899;DHT22;54699;51.796;10.956;2024-03-08T11:20:08;24.30;33.90
67899;DHT22;54699;51.796;10.956;2024-03-08T11:22:47;24.40;33.70
67899;DHT22;54699;51.796;10.956;2024-03-08T11:25:32;24.40;33.50
67899;DHT22;54699;51.796;10.956;2024-03-08T11:28:16;24.50;33.10
67899;DHT22;54699;51.796;10.956;2024-03-08T11:30:44;24.50;33.00
67899;DHT22;54699;51.796;10.956;2024-03-08T11:33:13;24.50;32.70
67899;DHT22;54699;51.796;10.956;2024-03-08T11:35:41;24.60;32.50
67899;DHT22;54699;51.796;10.956;2024-03-08T11:38:11;24.50;32.70
67899;DHT22;54699;51.796;10.956;2024-03-08T11:40:39;24.60;32.40
67899;DHT22;54699;51.796;10.956;2024-03-08T11:43:07;24.70;32.20
67899;DHT22;54699;51.796;10.956;2024-03-08T11:45:35;24.70;32.30
67899;DHT22;54699;51.796;10.956;2024-03-08T11:48:03;24.60;32.10
67899;DHT22;54699;51.796;10.956;2024-03-08T11:50:31;24.60;33.10
67899;DHT22;54699;51.796;10.956;2024-03-08T11:53:02;24.60;33.80
67899;DHT22;54699;51.796;10.956;2024-03-08T11:55:33;24.60;32.30
67899;DHT22;54699;51.796;10.956;2024-03-08T11:58:01;24.50;32.60
67899;DHT22;54699;51.796;10.956;2024-03-08T12:00:31;24.50;32.80
67899;DHT22;54699;51.796;10.956;2024-03-08T12:03:07;24.60;32.80
67899;DHT22;54699;51.796;10.956;2024-03-08T12:05:35;24.60;32.60
67899;DHT22;54699;51.796;10.956;2024-03-08T12:08:04;24.70;32.10
67899;DHT22;54699;51.796;10.956;2024-03-08T12:10:32;24.80;32.60
67899;DHT22;54699;51.796;10.956;2024-03-08T12:13:00;24.70;32.20
67899;DHT22;54699;51.796;10.956;2024-03-08T12:15:28;24.70;32.70
67899;DHT22;54699;51.796;10.956;2024-03-08T12:17:58;24.70;32.60
67899;DHT22;54699;51.796;10.956;2024-03-08T12:20:27;24.80;32.90
67899;DHT22;54699;51.796;10.956;2024-03-08T12:22:56;24.90;32.90
67899;DHT22;54699;51.796;10.956;2024-03-08T12:25:26;24.80;33.20
67899;DHT22;54699;51.796;10.956;2024-03-08T12:27:55;24.80;33.10
67899;DHT22;54699;51.796;10.956;2024-03-08T12:30:22;24.90;32.90
67899;DHT22;54699;51.796;10.956;2024-03-08T12:32:53;25.00;32.90
67899;DHT22;54699;51.796;10.956;2024-03-08T12:35:22;24.90;32.60
67899;DHT22;54699;51.796;10.956;2024-03-08T12:37:52;24.90;33.10
67899;DHT22;54699;51.796;10.956;2024-03-08T12:40:25;24.90;33.40
67899;DHT22;54699;51.796;10.956;2024-03-08T12:42:53;24.80;32.90
67899;DHT22;54699;51.796;10.956;2024-03-08T12:45:23;24.90;32.50
67899;DHT22;54699;51.796;10.956;2024-03-08T12:47:51;24.80;32.80
67899;DHT22;54699;51.796;10.956;2024-03-08T12:50:19;24.80;32.80
67899;DHT22;54699;51.796;10.956;2024-03-08T12:52:46;24.80;32.80
67899;DHT22;54699;51.796;10.956;2024-03-08T12:55:15;24.80;33.50
67899;DHT22;54699;51.796;10.956;2024-03-08T12:57:43;24.80;33.30
67899;DHT22;54699;51.796;10.956;2024-03-08T13:00:12;24.80;33.40
67899;DHT22;54699;51.796;10.956;2024-03-08T13:02:44;24.90;32.80
67899;DHT22;54699;51.796;10.956;2024-03-08T13:05:11;24.90;33.20
67899;DHT22;54699;51.796;10.956;2024-03-08T13:07:39;25.00;33.40
67899;DHT22;54699;51.796;10.956;2024-03-08T13:10:11;25.00;33.40
67899;DHT22;54699;51.796;10.956;2024-03-08T13:12:41;25.10;32.50
67899;DHT22;54699;51.796;10.956;2024-03-08T13:15:08;25.00;32.80
67899;DHT22;54699;51.796;10.956;2024-03-08T13:17:37;25.00;32.80
67899;DHT22;54699;51.796;10.956;2024-03-08T13:20:06;25.10;32.50
67899;DHT22;54699;51.796;10.956;2024-03-08T13:22:41;25.00;32.30
67899;DHT22;54699;51.796;10.956;2024-03-08T13:25:08;25.10;32.20
67899;DHT22;54699;51.796;10.956;2024-03-08T13:27:38;24.90;32.80
67899;DHT22;54699;51.796;10.956;2024-03-08T13:30:08;25.00;33.50
67899;DHT22;54699;51.796;10.956;2024-03-08T13:32:38;25.10;33.20
67899;DHT22;54699;51.796;10.956;2024-03-08T13:35:05;25.20;32.80
67899;DHT22;54699;51.796;10.956;2024-03-08T13:37:38;25.10;32.80
67899;DHT22;54699;51.796;10.956;2024-03-08T13:40:06;25.00;32.30
67899;DHT22;54699;51.796;10.956;2024-03-08T13:42:36;25.00;32.80
67899;DHT22;54699;51.796;10.956;2024-03-08T13:45:04;24.90;33.10
67899;DHT22;54699;51.796;10.956;2024-03-08T13:47:37;25.10;33.30
67899;DHT22;54699;51.796;10.956;2024-03-08T13:50:09;25.00;33.40
67899;DHT22;54699;51.796;10.956;2024-03-08T13:52:38;25.20;33.40
67899;DHT22;54699;51.796;10.956;2024-03-08T13:55:05;24.90;33.40
67899;DHT22;54699;51.796;10.956;2024-03-08T13:57:32;25.00;33.60
67899;DHT22;54699;51.796;10.956;2024-03-08T13:59:59;25.10;33.50
67899;DHT22;54699;51.796;10.956;2024-03-08T14:02:26;25.20;32.80
67899;DHT22;54699;51.796;10.956;2024-03-08T14:04:57;25.10;33.10
67899;DHT22;54699;51.796;10.956;2024-03-08T14:07:26;25.10;33.70
67899;DHT22;54699;51.796;10.956;2024-03-08T14:09:54;25.10;33.70
67899;DHT22;54699;51.796;10.956;2024-03-08T14:12:21;25.20;33.60
67899;DHT22;54699;51.796;10.956;2024-03-08T14:14:51;25.20;33.40
67899;DHT22;54699;51.796;10.956;2024-03-08T14:17:18;25.20;33.50
67899;DHT22;54699;51.796;10.956;2024-03-08T14:19:46;25.20;33.50
67899;DHT22;54699;51.796;10.956;2024-03-08T14:22:14;25.20;33.30
67899;DHT22;54699;51.796;10.956;2024-03-08T14:24:41;25.30;33.00
67899;DHT22;54699;51.796;10.956;2024-03-08T14:27:08;25.20;33.50
67899;DHT22;54699;51.796;10.956;2024-03-08T14:29:37;25.10;33.50
67899;DHT22;54699;51.796;10.956;2024-03-08T14:32:04;25.10;33.20
67899;DHT22;54699;51.796;10.956;2024-03-08T14:34:31;25.10;33.30
67899;DHT22;54699;51.796;10.956;2024-03-08T14:36:59;25.30;33.90
67899;DHT22;54699;51.796;10.956;2024-03-08T14:39:31;25.30;34.30
67899;DHT22;54699;51.796;10.956;2024-03-08T14:41:58;25.30;35.40
67899;DHT22;54699;51.796;10.956;2024-03-08T14:44:27;25.30;36.30
67899;DHT22;54699;51.796;10.956;2024-03-08T14:46:55;25.20;35.30
67899;DHT22;54699;51.796;10.956;2024-03-08T14:49:22;25.30;35.50
67899;DHT22;54699;51.796;10.956;2024-03-08T14:51:51;25.20;36.00
67899;DHT22;54699;51.796;10.956;2024-03-08T14:54:19;25.30;36.00
67899;DHT22;54699;51.796;10.956;2024-03-08T14:56:49;25.20;37.00
67899;DHT22;54699;51.796;10.956;2024-03-08T14:59:17;25.20;35.60
67899;DHT22;54699;51.796;10.956;2024-03-08T15:01:44;25.30;35.80
67899;DHT22;54699;51.796;10.956;2024-03-08T15:04:11;25.30;35.70
67899;DHT22;54699;51.796;10.956;2024-03-08T15:06:39;25.10;35.50
67899;DHT22;54699;51.796;10.956;2024-03-08T15:09:08;24.80;35.70
67899;DHT22;54699;51.796;10.956;2024-03-08T15:11:44;24.60;36.10
67899;DHT22;54699;51.796;10.956;2024-03-08T15:14:12;24.30;36.70
67899;DHT22;54699;51.796;10.956;2024-03-08T15:16:39;24.00;37.30
67899;DHT22;54699;51.796;10.956;2024-03-08T15:19:10;23.70;37.60
67899;DHT22;54699;51.796;10.956;2024-03-08T15:21:40;23.50;38.10
67899;DHT22;54699;51.796;10.956;2024-03-08T15:24:08;23.20;38.30